sensor_id;sensor_type;location;lat;lon;timestamp;temperature;humidity
5697;DHT22;2873;50.966;7.210;2023-03-04T00:01:40;5.00;99.90
5697;DHT22;2873;50.966;7.210;2023-03-04T00:04:05;4.90;99.90
5697;DHT22;2873;50.966;7.210;2023-03-04T00:06:31;4.90;99.90
5697;DHT22;2873;50.966;7.210;2023-03-04T00:08:56;4.80;99.90
5697;DHT22;2873;50.966;7.210;2023-03-04T00:11:22;4.90;99.90
5697;DHT22;2873;50.966;7.210;2023-03-04T00:13:48;4.90;99.90
5697;DHT22;2873;50.966;7.210;2023-03-04T00:16:13;4.80;99.90
5697;DHT22;2873;50.966;7.210;2023-03-04T00:18:39;4.90;99.90
5697;DHT22;2873;50.966;7.210;2023-03-04T00:21:04;4.90;99.90
5697;DHT22;2873;50.966;7.210;2023-03-04T00:23:30;4.90;99.90
5697;DHT22;2873;50.966;7.210;2023-03-04T00:25:56;4.90;99.90
5697;DHT22;2873;50.966;7.210;2023-03-04T00:28:21;5.00;99.90
5697;DHT22;2873;50.966;7.210;2023-03-04T00:30:47;5.00;99.90
5697;DHT22;2873;50.966;7.210;2023-03-04T00:33:13;5.00;99.90
5697;DHT22;2873;50.966;7.210;2023-03-04T00:35:38;5.00;99.90
5697;DHT22;2873;50.966;7.210;2023-03-04T00:38:04;5.00;99.90
5697;DHT22;2873;50.966;7.210;2023-03-04T00:40:30;5.10;99.90
5697;DHT22;2873;50.966;7.210;2023-03-04T00:42:55;5.10;99.90
5697;DHT22;2873;50.966;7.210;2023-03-04T00:45:21;5.10;99.90
5697;DHT22;2873;50.966;7.210;2023-03-04T00:47:46;5.10;99.90
5697;DHT22;2873;50.966;7.210;2023-03-04T00:50:12;5.10;99.90
5697;DHT22;2873;50.966;7.210;2023-03-04T00:52:37;5.10;99.90
5697;DHT22;2873;50.966;7.210;2023-03-04T00:55:03;5.20;99.90
5697;DHT22;2873;50.966;7.210;2023-03-04T00:57:29;5.10;99.90
5697;DHT22;2873;50.966;7.210;2023-03-04T00:59:55;5.10;99.90
5697;DHT22;2873;50.966;7.210;2023-03-04T01:02:20;5.20;99.90
5697;DHT22;2873;50.966;7.210;2023-03-04T01:04:46;5.20;99.90
5697;DHT22;2873;50.966;7.210;2023-03-04T01:07:11;5.10;99.90
5697;DHT22;2873;50.966;7.210;2023-03-04T01:09:37;5.00;99.90
5697;DHT22;2873;50.966;7.210;2023-03-04T01:12:02;4.90;99.90
5697;DHT22;2873;50.966;7.210;2023-03-04T01:14:28;4.90;99.90
5697;DHT22;2873;50.966;7.210;2023-03-04T01:16:53;5.00;99.90
5697;DHT22;2873;50.966;7.210;2023-03-04T01:19:19;4.90;99.90
5697;DHT22;2873;50.966;7.210;2023-03-04T01:21:45;4.90;99.90
5697;DHT22;2873;50.966;7.210;2023-03-04T01:24:11;4.90;99.90
5697;DHT22;2873;50.966;7.210;2023-03-04T01:26:36;4.90;99.90
5697;DHT22;2873;50.966;7.210;2023-03-04T01:29:02;4.80;99.90
5697;DHT22;2873;50.966;7.210;2023-03-04T01:31:28;4.80;99.90
5697;DHT22;2873;50.966;7.210;2023-03-04T01:33:54;4.90;99.90
5697;DHT22;2873;50.966;7.210;2023-03-04T01:36:19;4.90;99.90
5697;DHT22;2873;50.966;7.210;2023-03-04T01:38:45;4.90;99.90
5697;DHT22;2873;50.966;7.210;2023-03-04T01:41:12;5.00;99.90
5697;DHT22;2873;50.966;7.210;2023-03-04T01:43:38;5.00;99.90
5697;DHT22;2873;50.966;7.210;2023-03-04T01:46:05;5.10;99.90
5697;DHT22;2873;50.966;7.210;2023-03-04T01:48:33;5.10;99.90
5697;DHT22;2873;50.966;7.210;2023-03-04T01:51:04;5.20;99.90
5697;DHT22;2873;50.966;7.210;2023-03-04T01:53:31;5.20;99.90
5697;DHT22;2873;50.966;7.210;2023-03-04T01:56:00;5.20;99.90
5697;DHT22;2873;50.966;7.210;2023-03-04T01:58:31;5.10;99.90
5697;DHT22;2873;50.966;7.210;2023-03-04T02:00:57;5.20;99.90
5697;DHT22;2873;50.966;7.210;2023-03-04T02:03:23;5.30;99.90
5697;DHT22;2873;50.966;7.210;2023-03-04T02:05:50;5.30;99.90
5697;DHT22;2873;50.966;7.210;2023-03-04T02:08:20;5.30;99.90
5697;DHT22;2873;50.966;7.210;2023-03-04T02:10:47;5.30;99.90
5697;DHT22;2873;50.966;7.210;2023-03-04T02:13:14;5.30;99.90
5697;DHT22;2873;50.966;7.210;2023-03-04T02:15:41;5.30;99.90
5697;DHT22;2873;50.966;7.210;2023-03-04T02:18:23;5.30;99.90
5697;DHT22;2873;50.966;7.210;2023-03-04T02:20:59;5.30;99.90
5697;DHT22;2873;50.966;7.210;2023-03-04T02:26:20;5.40;99.90
5697;DHT22;2873;50.966;7.210;2023-03-04T02:28:47;5.40;99.90
5697;DHT22;2873;50.966;7.210;2023-03-04T02:31:24;5.40;99.90
5697;DHT22;2873;50.966;7.210;2023-03-04T02:33:52;5.40;99.90
5697;DHT22;2873;50.966;7.210;2023-03-04T02:36:18;5.40;99.90
5697;DHT22;2873;50.966;7.210;2023-03-04T02:38:43;5.40;99.90
5697;DHT22;2873;50.966;7.210;2023-03-04T02:41:15;5.40;99.90
5697;DHT22;2873;50.966;7.210;2023-03-04T02:43:44;5.40;99.90
5697;DHT22;2873;50.966;7.210;2023-03-04T02:46:11;5.40;99.90
5697;DHT22;2873;50.966;7.210;2023-03-04T02:48:37;5.40;99.90
5697;DHT22;2873;50.966;7.210;2023-03-04T02:51:03;5.40;99.90
5697;DHT22;2873;50.966;7.210;2023-03-04T02:53:28;5.40;99.90
5697;DHT22;2873;50.966;7.210;2023-03-04T02:55:54;5.40;99.90
5697;DHT22;2873;50.966;7.210;2023-03-04T02:58:19;5.40;99.90
5697;DHT22;2873;50.966;7.210;2023-03-04T03:00:45;5.40;99.90
5697;DHT22;2873;50.966;7.210;2023-03-04T03:03:10;5.30;99.90
5697;DHT22;2873;50.966;7.210;2023-03-04T03:05:36;5.40;99.90
5697;DHT22;2873;50.966;7.210;2023-03-04T03:08:02;5.40;99.90
5697;DHT22;2873;50.966;7.210;2023-03-04T03:10:28;5.40;99.90
5697;DHT22;2873;50.966;7.210;2023-03-04T03:12:54;5.40;99.90
5697;DHT22;2873;50.966;7.210;2023-03-04T03:15:20;5.40;99.90
5697;DHT22;2873;50.966;7.210;2023-03-04T03:17:45;5.40;99.90
5697;DHT22;2873;50.966;7.210;2023-03-04T03:20:12;5.60;99.90
5697;DHT22;2873;50.966;7.210;2023-03-04T03:22:38;5.40;99.90
5697;DHT22;2873;50.966;7.210;2023-03-04T03:25:04;5.30;99.90
5697;DHT22;2873;50.966;7.210;2023-03-04T03:27:30;5.30;99.90
5697;DHT22;2873;50.966;7.210;2023-03-04T03:29:56;5.20;99.90
5697;DHT22;2873;50.966;7.210;2023-03-04T03:32:21;5.20;99.90
5697;DHT22;2873;50.966;7.210;2023-03-04T03:34:47;5.20;99.90
5697;DHT22;2873;50.966;7.210;2023-03-04T03:37:13;5.30;99.90
5697;DHT22;2873;50.966;7.210;2023-03-04T03:39:38;5.30;99.90
5697;DHT22;2873;50.966;7.210;2023-03-04T03:42:04;5.40;99.90
5697;DHT22;2873;50.966;7.210;2023-03-04T03:44:30;5.40;99.90
5697;DHT22;2873;50.966;7.210;2023-03-04T03:46:56;5.50;99.90
5697;DHT22;2873;50.966;7.210;2023-03-04T03:49:22;5.40;99.90
5697;DHT22;2873;50.966;7.210;2023-03-04T03:51:47;5.40;99.90
5697;DHT22;2873;50.966;7.210;2023-03-04T03:54:13;5.50;99.90
5697;DHT22;2873;50.966;7.210;2023-03-04T03:56:38;5.50;99.90
5697;DHT22;2873;50.966;7.210;2023-03-04T03:59:04;5.40;99.90
5697;DHT22;2873;50.966;7.210;2023-03-04T04:01:29;5.40;99.90
5697;DHT22;2873;50.966;7.210;2023-03-04T04:03:55;5.40;99.90
5697;DHT22;2873;50.966;7.210;2023-03-04T04:06:21;5.50;99.90
5697;DHT22;2873;50.966;7.210;2023-03-04T04:08:46;5.50;99.90
5697;DHT22;2873;50.966;7.210;2023-03-04T04:11:12;5.50;99.90
5697;DHT22;2873;50.966;7.210;2023-03-04T04:13:38;5.50;99.90
5697;DHT22;2873;50.966;7.210;2023-03-04T04:16:04;5.50;99.90
5697;DHT22;2873;50.966;7.210;2023-03-04T04:18:29;5.50;99.90
5697;DHT22;2873;50.966;7.210;2023-03-04T04:20:55;5.50;99.90
5697;DHT22;2873;50.966;7.210;2023-03-04T04:23:21;5.50;99.90
5697;DHT22;2873;50.966;7.210;2023-03-04T04:25:46;5.50;99.90
5697;DHT22;2873;50.966;7.210;2023-03-04T04:28:12;5.50;99.90
5697;DHT22;2873;50.966;7.210;2023-03-04T04:30:37;5.60;99.90
5697;DHT22;2873;50.966;7.210;2023-03-04T04:33:04;5.60;99.90
5697;DHT22;2873;50.966;7.210;2023-03-04T04:35:31;5.60;99.90
5697;DHT22;2873;50.966;7.210;2023-03-04T04:37:57;5.60;99.90
5697;DHT22;2873;50.966;7.210;2023-03-04T04:40:22;5.60;99.90
5697;DHT22;2873;50.966;7.210;2023-03-04T04:42:48;5.60;99.90
5697;DHT22;2873;50.966;7.210;2023-03-04T04:45:14;5.60;99.90
5697;DHT22;2873;50.966;7.210;2023-03-04T04:47:39;5.50;99.90
5697;DHT22;2873;50.966;7.210;2023-03-04T04:50:05;5.50;99.90
5697;DHT22;2873;50.966;7.210;2023-03-04T04:52:31;5.50;99.90
5697;DHT22;2873;50.966;7.210;2023-03-04T04:54:56;5.60;99.90
5697;DHT22;2873;50.966;7.210;2023-03-04T04:57:22;5.60;99.90
5697;DHT22;2873;50.966;7.210;2023-03-04T04:59:48;5.60;99.90
5697;DHT22;2873;50.966;7.210;2023-03-04T05:02:13;5.60;99.90
5697;DHT22;2873;50.966;7.210;2023-03-04T05:04:39;5.60;99.90
5697;DHT22;2873;50.966;7.210;2023-03-04T05:07:04;5.60;99.90
5697;DHT22;2873;50.966;7.210;2023-03-04T05:09:30;5.60;99.90
5697;DHT22;2873;50.966;7.210;2023-03-04T05:11:55;5.70;99.90
5697;DHT22;2873;50.966;7.210;2023-03-04T05:14:21;5.60;99.90
5697;DHT22;2873;50.966;7.210;2023-03-04T05:16:46;5.60;99.90
5697;DHT22;2873;50.966;7.210;2023-03-04T05:19:12;5.60;99.90
5697;DHT22;2873;50.966;7.210;2023-03-04T05:21:38;5.60;99.90
5697;DHT22;2873;50.966;7.210;2023-03-04T05:24:03;5.70;99.90
5697;DHT22;2873;50.966;7.210;2023-03-04T05:26:29;5.70;99.90
5697;DHT22;2873;50.966;7.210;2023-03-04T05:28:54;5.70;99.90
5697;DHT22;2873;50.966;7.210;2023-03-04T05:31:20;5.70;99.90
5697;DHT22;2873;50.966;7.210;2023-03-04T05:33:45;5.70;99.90
5697;DHT22;2873;50.966;7.210;2023-03-04T05:36:11;5.70;99.90
5697;DHT22;2873;50.966;7.210;2023-03-04T05:38:37;5.70;99.90
5697;DHT22;2873;50.966;7.210;2023-03-04T05:41:04;5.70;99.90
5697;DHT22;2873;50.966;7.210;2023-03-04T05:43:31;5.70;99.90
5697;DHT22;2873;50.966;7.210;2023-03-04T05:45:56;5.70;99.90
5697;DHT22;2873;50.966;7.210;2023-03-04T05:48:22;5.70;99.90
5697;DHT22;2873;50.966;7.210;2023-03-04T05:50:58;5.70;99.90
5697;DHT22;2873;50.966;7.210;2023-03-04T05:53:24;5.80;99.90
5697;DHT22;2873;50.966;7.210;2023-03-04T05:55:50;5.70;99.90
5697;DHT22;2873;50.966;7.210;2023-03-04T05:58:16;5.80;99.90
5697;DHT22;2873;50.966;7.210;2023-03-04T06:00:42;5.80;99.90
5697;DHT22;2873;50.966;7.210;2023-03-04T06:03:14;5.80;99.90
5697;DHT22;2873;50.966;7.210;2023-03-04T06:05:40;5.80;99.90
5697;DHT22;2873;50.966;7.210;2023-03-04T06:08:05;5.80;99.90
5697;DHT22;2873;50.966;7.210;2023-03-04T06:10:31;5.80;99.90
5697;DHT22;2873;50.966;7.210;2023-03-04T06:12:57;5.80;99.90
5697;DHT22;2873;50.966;7.210;2023-03-04T06:15:22;5.80;99.90
5697;DHT22;2873;50.966;7.210;2023-03-04T06:17:48;5.90;99.90
5697;DHT22;2873;50.966;7.210;2023-03-04T06:20:13;5.90;99.90
5697;DHT22;2873;50.966;7.210;2023-03-04T06:22:39;5.90;99.90
5697;DHT22;2873;50.966;7.210;2023-03-04T06:25:05;5.90;99.90
5697;DHT22;2873;50.966;7.210;2023-03-04T06:27:31;5.90;99.90
5697;DHT22;2873;50.966;7.210;2023-03-04T06:29:56;6.00;99.90
5697;DHT22;2873;50.966;7.210;2023-03-04T06:32:22;6.00;99.90
5697;DHT22;2873;50.966;7.210;2023-03-04T06:34:48;6.00;99.90
5697;DHT22;2873;50.966;7.210;2023-03-04T06:37:13;6.00;99.90
5697;DHT22;2873;50.966;7.210;2023-03-04T06:39:39;6.10;99.90
5697;DHT22;2873;50.966;7.210;2023-03-04T06:42:04;6.00;99.90
5697;DHT22;2873;50.966;7.210;2023-03-04T06:44:30;6.00;99.90
5697;DHT22;2873;50.966;7.210;2023-03-04T06:46:55;6.10;99.90
5697;DHT22;2873;50.966;7.210;2023-03-04T06:49:21;6.10;99.90
5697;DHT22;2873;50.966;7.210;2023-03-04T06:51:47;6.10;99.90
5697;DHT22;2873;50.966;7.210;2023-03-04T06:54:12;6.10;99.90
5697;DHT22;2873;50.966;7.210;2023-03-04T06:56:38;6.10;99.90
5697;DHT22;2873;50.966;7.210;2023-03-04T06:59:03;6.10;99.90
5697;DHT22;2873;50.966;7.210;2023-03-04T07:01:29;6.10;99.90
5697;DHT22;2873;50.966;7.210;2023-03-04T07:03:55;6.00;99.90
5697;DHT22;2873;50.966;7.210;2023-03-04T07:06:24;6.10;99.90
5697;DHT22;2873;50.966;7.210;2023-03-04T07:08:50;6.00;99.90
5697;DHT22;2873;50.966;7.210;2023-03-04T07:11:17;6.00;99.90
5697;DHT22;2873;50.966;7.210;2023-03-04T07:13:43;6.00;99.90
5697;DHT22;2873;50.966;7.210;2023-03-04T07:16:10;6.10;99.90
5697;DHT22;2873;50.966;7.210;2023-03-04T07:18:37;6.10;99.90
5697;DHT22;2873;50.966;7.210;2023-03-04T07:21:05;6.20;99.90
5697;DHT22;2873;50.966;7.210;2023-03-04T07:23:31;6.20;99.90
5697;DHT22;2873;50.966;7.210;2023-03-04T07:25:57;6.30;99.90
5697;DHT22;2873;50.966;7.210;2023-03-04T07:28:22;6.30;99.90
5697;DHT22;2873;50.966;7.210;2023-03-04T07:30:48;6.30;99.90
5697;DHT22;2873;50.966;7.210;2023-03-04T07:33:14;6.30;99.90
5697;DHT22;2873;50.966;7.210;2023-03-04T07:35:40;6.30;99.90
5697;DHT22;2873;50.966;7.210;2023-03-04T07:38:05;6.40;99.90
5697;DHT22;2873;50.966;7.210;2023-03-04T07:40:31;6.40;99.90
5697;DHT22;2873;50.966;7.210;2023-03-04T07:42:57;6.40;99.90
5697;DHT22;2873;50.966;7.210;2023-03-04T07:45:23;6.50;99.90
5697;DHT22;2873;50.966;7.210;2023-03-04T07:47:49;6.50;99.90
5697;DHT22;2873;50.966;7.210;2023-03-04T07:50:15;6.50;99.90
5697;DHT22;2873;50.966;7.210;2023-03-04T07:52:43;6.50;99.90
5697;DHT22;2873;50.966;7.210;2023-03-04T07:55:10;6.60;99.90
5697;DHT22;2873;50.966;7.210;2023-03-04T07:57:40;6.60;99.90
5697;DHT22;2873;50.966;7.210;2023-03-04T08:00:07;6.60;99.90
5697;DHT22;2873;50.966;7.210;2023-03-04T08:02:33;6.60;99.90
5697;DHT22;2873;50.966;7.210;2023-03-04T08:04:58;6.70;99.90
5697;DHT22;2873;50.966;7.210;2023-03-04T08:07:24;6.70;99.90
5697;DHT22;2873;50.966;7.210;2023-03-04T08:09:49;6.80;99.90
5697;DHT22;2873;50.966;7.210;2023-03-04T08:12:15;6.80;99.90
5697;DHT22;2873;50.966;7.210;2023-03-04T08:14:40;6.80;99.90
5697;DHT22;2873;50.966;7.210;2023-03-04T08:17:06;6.80;99.90
5697;DHT22;2873;50.966;7.210;2023-03-04T08:19:32;6.90;99.90
5697;DHT22;2873;50.966;7.210;2023-03-04T08:21:58;6.90;99.90
5697;DHT22;2873;50.966;7.210;2023-03-04T08:24:24;7.00;99.90
5697;DHT22;2873;50.966;7.210;2023-03-04T08:26:49;7.00;99.90
5697;DHT22;2873;50.966;7.210;2023-03-04T08:29:18;7.00;99.90
5697;DHT22;2873;50.966;7.210;2023-03-04T08:31:45;7.10;99.90
5697;DHT22;2873;50.966;7.210;2023-03-04T08:34:12;7.10;99.90
5697;DHT22;2873;50.966;7.210;2023-03-04T08:36:42;7.10;99.90
5697;DHT22;2873;50.966;7.210;2023-03-04T08:39:11;7.20;99.90
5697;DHT22;2873;50.966;7.210;2023-03-04T08:41:36;7.20;99.90
5697;DHT22;2873;50.966;7.210;2023-03-04T08:44:02;7.20;99.90
5697;DHT22;2873;50.966;7.210;2023-03-04T08:46:28;7.30;99.90
5697;DHT22;2873;50.966;7.210;2023-03-04T08:48:53;7.30;99.90
5697;DHT22;2873;50.966;7.210;2023-03-04T08:51:19;7.30;99.90
5697;DHT22;2873;50.966;7.210;2023-03-04T08:53:45;7.40;99.90
5697;DHT22;2873;50.966;7.210;2023-03-04T08:56:11;7.50;99.90
5697;DHT22;2873;50.966;7.210;2023-03-04T08:58:37;7.40;99.90
5697;DHT22;2873;50.966;7.210;2023-03-04T09:01:04;7.30;99.90
5697;DHT22;2873;50.966;7.210;2023-03-04T09:03:31;7.40;99.90
5697;DHT22;2873;50.966;7.210;2023-03-04T09:05:57;7.40;99.90
5697;DHT22;2873;50.966;7.210;2023-03-04T09:08:22;7.50;99.90
5697;DHT22;2873;50.966;7.210;2023-03-04T09:10:51;7.60;99.90
5697;DHT22;2873;50.966;7.210;2023-03-04T09:13:17;7.50;99.90
5697;DHT22;2873;50.966;7.210;2023-03-04T09:15:44;7.60;99.90
5697;DHT22;2873;50.966;7.210;2023-03-04T09:18:11;7.70;99.90
5697;DHT22;2873;50.966;7.210;2023-03-04T09:20:36;7.80;99.90
5697;DHT22;2873;50.966;7.210;2023-03-04T09:23:02;8.00;99.90
5697;DHT22;2873;50.966;7.210;2023-03-04T09:25:28;8.20;99.90
5697;DHT22;2873;50.966;7.210;2023-03-04T09:27:53;8.20;99.90
5697;DHT22;2873;50.966;7.210;2023-03-04T09:30:19;8.10;99.90
5697;DHT22;2873;50.966;7.210;2023-03-04T09:32:45;8.20;99.90
5697;DHT22;2873;50.966;7.210;2023-03-04T09:35:11;8.30;99.90
5697;DHT22;2873;50.966;7.210;2023-03-04T09:37:37;8.30;99.90
5697;DHT22;2873;50.966;7.210;2023-03-04T09:40:03;8.50;99.90
5697;DHT22;2873;50.966;7.210;2023-03-04T09:42:45;9.50;99.90
5697;DHT22;2873;50.966;7.210;2023-03-04T09:45:16;10.70;99.90
5697;DHT22;2873;50.966;7.210;2023-03-04T09:47:43;11.70;99.90
5697;DHT22;2873;50.966;7.210;2023-03-04T09:50:10;14.20;99.90
5697;DHT22;2873;50.966;7.210;2023-03-04T09:52:40;17.00;99.90
5697;DHT22;2873;50.966;7.210;2023-03-04T09:55:38;19.60;99.90
5697;DHT22;2873;50.966;7.210;2023-03-04T10:01:02;17.10;99.90
5697;DHT22;2873;50.966;7.210;2023-03-04T10:03:56;16.50;99.90
5697;DHT22;2873;50.966;7.210;2023-03-04T10:06:22;15.90;99.90
5697;DHT22;2873;50.966;7.210;2023-03-04T10:08:58;14.70;99.90
5697;DHT22;2873;50.966;7.210;2023-03-04T10:11:47;13.70;99.90
5697;DHT22;2873;50.966;7.210;2023-03-04T10:14:41;12.90;99.90
5697;DHT22;2873;50.966;7.210;2023-03-04T10:17:28;12.40;99.90
5697;DHT22;2873;50.966;7.210;2023-03-04T10:22:26;12.40;99.90
5697;DHT22;2873;50.966;7.210;2023-03-04T10:24:56;12.10;99.90
5697;DHT22;2873;50.966;7.210;2023-03-04T10:27:22;12.30;99.90
5697;DHT22;2873;50.966;7.210;2023-03-04T10:29:49;13.30;99.90
5697;DHT22;2873;50.966;7.210;2023-03-04T10:32:19;12.70;99.90
5697;DHT22;2873;50.966;7.210;2023-03-04T10:34:45;12.10;99.90
5697;DHT22;2873;50.966;7.210;2023-03-04T10:37:11;11.70;99.90
5697;DHT22;2873;50.966;7.210;2023-03-04T10:39:42;11.20;99.90
5697;DHT22;2873;50.966;7.210;2023-03-04T10:44:51;10.60;99.90
5697;DHT22;2873;50.966;7.210;2023-03-04T10:47:17;10.30;99.90
5697;DHT22;2873;50.966;7.210;2023-03-04T10:49:56;10.10;99.90
5697;DHT22;2873;50.966;7.210;2023-03-04T10:54:56;10.20;99.90
5697;DHT22;2873;50.966;7.210;2023-03-04T10:57:35;10.00;99.90
5697;DHT22;2873;50.966;7.210;2023-03-04T11:02:50;9.90;99.90
5697;DHT22;2873;50.966;7.210;2023-03-04T11:05:25;9.80;99.90
5697;DHT22;2873;50.966;7.210;2023-03-04T11:07:59;9.80;99.90
5697;DHT22;2873;50.966;7.210;2023-03-04T11:13:05;10.90;99.90
5697;DHT22;2873;50.966;7.210;2023-03-04T11:18:15;11.10;99.90
5697;DHT22;2873;50.966;7.210;2023-03-04T11:20:44;11.10;99.90
5697;DHT22;2873;50.966;7.210;2023-03-04T11:23:19;11.10;99.90
5697;DHT22;2873;50.966;7.210;2023-03-04T11:26:00;11.00;99.90
5697;DHT22;2873;50.966;7.210;2023-03-04T11:31:29;12.30;99.90
5697;DHT22;2873;50.966;7.210;2023-03-04T11:34:00;12.10;99.90
5697;DHT22;2873;50.966;7.210;2023-03-04T11:36:51;12.00;99.90
5697;DHT22;2873;50.966;7.210;2023-03-04T11:39:43;11.70;99.90
5697;DHT22;2873;50.966;7.210;2023-03-04T11:42:39;11.30;99.90
5697;DHT22;2873;50.966;7.210;2023-03-04T11:45:14;10.80;99.90
5697;DHT22;2873;50.966;7.210;2023-03-04T11:50:52;10.40;99.90
5697;DHT22;2873;50.966;7.210;2023-03-04T12:10:14;9.60;99.90
5697;DHT22;2873;50.966;7.210;2023-03-04T12:21:32;9.40;99.90
5697;DHT22;2873;50.966;7.210;2023-03-04T12:27:26;9.40;99.90
5697;DHT22;2873;50.966;7.210;2023-03-04T12:30:12;9.40;99.90
5697;DHT22;2873;50.966;7.210;2023-03-04T12:38:58;9.30;99.90
5697;DHT22;2873;50.966;7.210;2023-03-04T12:41:41;9.20;99.90
5697;DHT22;2873;50.966;7.210;2023-03-04T12:44:19;9.00;99.90
5697;DHT22;2873;50.966;7.210;2023-03-04T12:55:36;9.40;99.90
5697;DHT22;2873;50.966;7.210;2023-03-04T12:58:03;9.40;99.90
5697;DHT22;2873;50.966;7.210;2023-03-04T13:01:08;9.50;99.90
5697;DHT22;2873;50.966;7.210;2023-03-04T13:03:44;9.70;99.90
5697;DHT22;2873;50.966;7.210;2023-03-04T13:11:44;9.70;99.90
5697;DHT22;2873;50.966;7.210;2023-03-04T13:16:45;9.70;99.90
5697;DHT22;2873;50.966;7.210;2023-03-04T13:24:53;9.40;99.90
5697;DHT22;2873;50.966;7.210;2023-03-04T13:27:48;9.40;99.90
5697;DHT22;2873;50.966;7.210;2023-03-04T13:36:01;9.20;99.90
5697;DHT22;2873;50.966;7.210;2023-03-04T13:54:32;9.70;99.90
5697;DHT22;2873;50.966;7.210;2023-03-04T13:59:42;9.90;99.90
5697;DHT22;2873;50.966;7.210;2023-03-04T14:02:23;9.90;99.90
5697;DHT22;2873;50.966;7.210;2023-03-04T14:07:33;9.80;99.90
5697;DHT22;2873;50.966;7.210;2023-03-04T14:10:04;9.80;99.90
5697;DHT22;2873;50.966;7.210;2023-03-04T14:12:32;9.70;99.90
5697;DHT22;2873;50.966;7.210;2023-03-04T14:17:39;9.70;99.90
5697;DHT22;2873;50.966;7.210;2023-03-04T14:20:38;9.60;99.90
5697;DHT22;2873;50.966;7.210;2023-03-04T14:23:30;9.40;99.90
5697;DHT22;2873;50.966;7.210;2023-03-04T14:26:25;9.40;99.90
5697;DHT22;2873;50.966;7.210;2023-03-04T14:28:52;9.50;99.90
5697;DHT22;2873;50.966;7.210;2023-03-04T14:31:23;9.40;99.90
5697;DHT22;2873;50.966;7.210;2023-03-04T14:33:53;9.30;99.90
5697;DHT22;2873;50.966;7.210;2023-03-04T14:36:28;9.30;99.90
5697;DHT22;2873;50.966;7.210;2023-03-04T14:39:05;9.30;99.90
5697;DHT22;2873;50.966;7.210;2023-03-04T14:41:39;9.20;99.90
5697;DHT22;2873;50.966;7.210;2023-03-04T14:44:42;9.30;99.90
5697;DHT22;2873;50.966;7.210;2023-03-04T14:47:13;9.30;99.90
5697;DHT22;2873;50.966;7.210;2023-03-04T14:49:39;9.30;99.90
5697;DHT22;2873;50.966;7.210;2023-03-04T14:52:05;9.30;99.90
5697;DHT22;2873;50.966;7.210;2023-03-04T14:57:23;9.20;99.90
5697;DHT22;2873;50.966;7.210;2023-03-04T14:59:51;9.30;99.90
5697;DHT22;2873;50.966;7.210;2023-03-04T15:02:35;9.30;99.90
5697;DHT22;2873;50.966;7.210;2023-03-04T15:05:15;9.30;99.90
5697;DHT22;2873;50.966;7.210;2023-03-04T15:07:42;9.30;99.90
5697;DHT22;2873;50.966;7.210;2023-03-04T15:10:10;9.30;99.90
5697;DHT22;2873;50.966;7.210;2023-03-04T15:12:39;9.30;99.90
5697;DHT22;2873;50.966;7.210;2023-03-04T15:15:46;9.20;99.90
5697;DHT22;2873;50.966;7.210;2023-03-04T15:18:24;9.20;99.90
5697;DHT22;2873;50.966;7.210;2023-03-04T15:20:54;9.20;99.90
5697;DHT22;2873;50.966;7.210;2023-03-04T15:23:19;9.20;99.90
5697;DHT22;2873;50.966;7.210;2023-03-04T15:25:45;9.20;99.90
5697;DHT22;2873;50.966;7.210;2023-03-04T15:28:20;9.00;99.90
5697;DHT22;2873;50.966;7.210;2023-03-04T15:30:46;9.10;99.90
5697;DHT22;2873;50.966;7.210;2023-03-04T15:33:12;9.10;99.90
5697;DHT22;2873;50.966;7.210;2023-03-04T15:35:38;9.10;99.90
5697;DHT22;2873;50.966;7.210;2023-03-04T15:38:06;9.00;99.90
5697;DHT22;2873;50.966;7.210;2023-03-04T15:40:35;9.10;99.90
5697;DHT22;2873;50.966;7.210;2023-03-04T15:43:04;9.00;99.90
5697;DHT22;2873;50.966;7.210;2023-03-04T15:45:32;9.00;99.90
5697;DHT22;2873;50.966;7.210;2023-03-04T15:48:01;9.00;99.90
5697;DHT22;2873;50.966;7.210;2023-03-04T15:50:33;9.00;99.90
5697;DHT22;2873;50.966;7.210;2023-03-04T15:53:01;9.00;99.90
5697;DHT22;2873;50.966;7.210;2023-03-04T15:55:28;9.00;99.90
5697;DHT22;2873;50.966;7.210;2023-03-04T15:57:56;9.00;99.90
5697;DHT22;2873;50.966;7.210;2023-03-04T16:00:22;9.00;99.90
5697;DHT22;2873;50.966;7.210;2023-03-04T16:02:48;9.00;99.90
5697;DHT22;2873;50.966;7.210;2023-03-04T16:05:14;8.90;99.90
5697;DHT22;2873;50.966;7.210;2023-03-04T16:07:41;8.90;99.90
5697;DHT22;2873;50.966;7.210;2023-03-04T16:10:26;8.90;99.90
5697;DHT22;2873;50.966;7.210;2023-03-04T16:12:53;8.90;99.90
5697;DHT22;2873;50.966;7.210;2023-03-04T16:15:21;8.90;99.90
5697;DHT22;2873;50.966;7.210;2023-03-04T16:17:47;8.90;99.90
5697;DHT22;2873;50.966;7.210;2023-03-04T16:20:15;8.70;99.90
5697;DHT22;2873;50.966;7.210;2023-03-04T16:22:42;8.70;99.90
5697;DHT22;2873;50.966;7.210;2023-03-04T16:25:13;8.60;99.90
5697;DHT22;2873;50.966;7.210;2023-03-04T16:27:40;8.50;99.90
5697;DHT22;2873;50.966;7.210;2023-03-04T16:30:21;8.40;99.90
5697;DHT22;2873;50.966;7.210;2023-03-04T16:32:47;8.40;99.90
5697;DHT22;2873;50.966;7.210;2023-03-04T16:35:13;8.50;99.90
5697;DHT22;2873;50.966;7.210;2023-03-04T16:37:40;8.50;99.90
5697;DHT22;2873;50.966;7.210;2023-03-04T16:40:13;8.40;99.90
5697;DHT22;2873;50.966;7.210;2023-03-04T16:42:40;8.50;99.90
5697;DHT22;2873;50.966;7.210;2023-03-04T16:45:09;8.40;99.90
5697;DHT22;2873;50.966;7.210;2023-03-04T16:47:39;8.40;99.90
5697;DHT22;2873;50.966;7.210;2023-03-04T16:50:04;8.40;99.90
5697;DHT22;2873;50.966;7.210;2023-03-04T16:52:31;8.30;99.90
5697;DHT22;2873;50.966;7.210;2023-03-04T16:54:57;8.30;99.90
5697;DHT22;2873;50.966;7.210;2023-03-04T16:57:24;8.30;99.90
5697;DHT22;2873;50.966;7.210;2023-03-04T16:59:52;8.30;99.90
5697;DHT22;2873;50.966;7.210;2023-03-04T17:02:21;8.30;99.90
5697;DHT22;2873;50.966;7.210;2023-03-04T17:04:48;8.20;99.90
5697;DHT22;2873;50.966;7.210;2023-03-04T17:07:15;8.20;99.90
5697;DHT22;2873;50.966;7.210;2023-03-04T17:09:41;8.30;99.90
5697;DHT22;2873;50.966;7.210;2023-03-04T17:12:09;8.30;99.90
5697;DHT22;2873;50.966;7.210;2023-03-04T17:14:35;8.30;99.90
5697;DHT22;2873;50.966;7.210;2023-03-04T17:17:01;8.30;99.90
5697;DHT22;2873;50.966;7.210;2023-03-04T17:19:27;8.30;99.90
5697;DHT22;2873;50.966;7.210;2023-03-04T17:21:55;8.30;99.90
5697;DHT22;2873;50.966;7.210;2023-03-04T17:24:21;8.30;99.90
5697;DHT22;2873;50.966;7.210;2023-03-04T17:26:47;8.30;99.90
5697;DHT22;2873;50.966;7.210;2023-03-04T17:29:12;8.30;99.90
5697;DHT22;2873;50.966;7.210;2023-03-04T17:31:38;8.30;99.90
5697;DHT22;2873;50.966;7.210;2023-03-04T17:34:03;8.20;99.90
5697;DHT22;2873;50.966;7.210;2023-03-04T17:36:29;8.20;99.90
5697;DHT22;2873;50.966;7.210;2023-03-04T17:38:55;8.20;99.90
5697;DHT22;2873;50.966;7.210;2023-03-04T17:41:20;8.20;99.90
5697;DHT22;2873;50.966;7.210;2023-03-04T17:43:48;8.20;99.90
5697;DHT22;2873;50.966;7.210;2023-03-04T17:46:16;8.20;99.90
5697;DHT22;2873;50.966;7.210;2023-03-04T17:48:42;8.20;99.90
5697;DHT22;2873;50.966;7.210;2023-03-04T17:51:08;8.20;99.90
5697;DHT22;2873;50.966;7.210;2023-03-04T17:53:34;8.10;99.90
5697;DHT22;2873;50.966;7.210;2023-03-04T17:56:01;8.10;99.90
5697;DHT22;2873;50.966;7.210;2023-03-04T17:58:29;8.10;99.90
5697;DHT22;2873;50.966;7.210;2023-03-04T18:01:04;8.10;99.90
5697;DHT22;2873;50.966;7.210;2023-03-04T18:03:30;8.10;99.90
5697;DHT22;2873;50.966;7.210;2023-03-04T18:05:56;8.10;99.90
5697;DHT22;2873;50.966;7.210;2023-03-04T18:08:22;8.00;99.90
5697;DHT22;2873;50.966;7.210;2023-03-04T18:10:47;8.00;99.90
5697;DHT22;2873;50.966;7.210;2023-03-04T18:13:13;8.00;99.90
5697;DHT22;2873;50.966;7.210;2023-03-04T18:15:38;8.00;99.90
5697;DHT22;2873;50.966;7.210;2023-03-04T18:18:04;8.00;99.90
5697;DHT22;2873;50.966;7.210;2023-03-04T18:20:29;8.00;99.90
5697;DHT22;2873;50.966;7.210;2023-03-04T18:22:55;7.90;99.90